Time;durP1;ratioP1;P1;durP2;ratioP2;P2;SDS_P1;SDS_P2;PMS_P1;PMS_P2;Temp;Humidity;BMP_temperature;BMP_pressure;BME280_temperature;BME280_humidity;BME280_pressure;Samples;Min_cycle;Max_cycle;Signal;HPM_P1;HPM_P2
2023/06/20 00:02:47;;;;;;;;;27.50;26.00;;;;;22.34;66.24;98764.47;6080617;28;96758;-59
2023/06/20 00:05:51;;;;;;;;;22.00;20.00;;;;;22.21;66.62;98750.69;6074528;28;96466;-59
2023/06/20 00:08:54;;;;;;;;;27.33;24.33;;;;;22.20;67.29;98762.78;6062652;28;96781;-59
2023/06/20 00:11:59;;;;;;;;;23.80;23.00;;;;;22.14;67.41;98758.53;6079624;28;96848;-59
2023/06/20 00:15:04;;;;;;;;;25.00;22.60;;;;;22.09;67.67;98764.09;6049444;28;99015;-59
2023/06/20 00:18:07;;;;;;;;;24.00;24.00;;;;;22.06;67.04;98760.00;6077006;28;96238;-59
2023/06/20 00:21:10;;;;;;;;;25.00;22.00;;;;;21.92;67.44;98742.66;6062259;28;96637;-59
2023/06/20 00:24:14;;;;;;;;;25.00;24.00;;;;;21.99;67.72;98751.34;6081912;28;97147;-59
2023/06/20 00:27:18;;;;;;;;;26.00;24.00;;;;;21.95;67.17;98747.56;6083456;28;96322;-59
2023/06/20 00:30:22;;;;;;;;;24.00;22.00;;;;;21.87;68.11;98746.28;6066744;28;96423;-59
2023/06/20 00:33:25;;;;;;;;;27.40;24.40;;;;;21.81;67.76;98749.41;6063914;28;96381;-59
2023/06/20 00:36:28;;;;;;;;;28.00;26.40;;;;;21.77;68.39;98753.84;6081800;28;96877;-59
2023/06/20 00:39:31;;;;;;;;;26.40;25.40;;;;;21.72;68.25;98762.16;6064625;28;97115;-60
2023/06/20 00:42:36;;;;;;;;;24.50;23.00;;;;;21.69;67.86;98754.53;6080404;28;96372;-60
2023/06/20 00:45:41;;;;;;;;;26.00;24.50;;;;;21.64;68.73;98758.19;6061085;28;96641;-59
2023/06/20 00:48:45;;;;;;;;;24.40;22.80;;;;;21.63;68.06;98742.81;6072533;28;96715;-59
2023/06/20 00:51:50;;;;;;;;;25.60;24.60;;;;;21.64;68.70;98746.38;6072748;28;96874;-59
2023/06/20 00:54:53;;;;;;;;;21.20;21.20;;;;;21.60;68.48;98740.66;6068466;28;96578;-59
2023/06/20 00:57:59;;;;;;;;;23.00;22.00;;;;;21.58;68.66;98742.91;6080031;28;96271;-59
2023/06/20 01:01:05;;;;;;;;;21.80;20.20;;;;;21.56;68.96;98747.84;6082059;28;96540;-59
2023/06/20 01:04:10;;;;;;;;;24.00;22.60;;;;;21.56;69.51;98750.59;6081293;28;96633;-59
2023/06/20 01:07:18;;;;;;;;;22.20;21.80;;;;;21.54;69.74;98744.59;6047472;28;98983;-59
2023/06/20 01:10:28;;;;;;;;;24.80;22.00;;;;;21.53;69.28;98754.75;6045215;28;96574;-60
2023/06/20 01:13:46;;;;;;;;;22.00;21.00;;;;;21.54;69.16;98764.63;6076479;28;96497;-59
2023/06/20 01:16:58;;;;;;;;;25.25;23.00;;;;;21.59;68.46;98753.59;6077100;28;96460;-59
2023/06/20 01:20:09;;;;;;;;;24.20;24.00;;;;;21.64;67.83;98754.63;6060924;28;96680;-60
2023/06/20 01:23:20;;;;;;;;;23.60;21.00;;;;;21.67;67.18;98759.50;6078019;28;97120;-59
2023/06/20 01:26:32;;;;;;;;;22.60;21.60;;;;;21.62;67.66;98757.66;6073511;28;95912;-59
2023/06/20 01:29:40;;;;;;;;;23.40;22.00;;;;;21.66;67.65;98755.13;6062493;28;96520;-59
2023/06/20 01:32:46;;;;;;;;;25.60;24.00;;;;;21.43;68.28;98765.88;6079356;28;96725;-59
2023/06/20 01:35:50;;;;;;;;;26.80;22.40;;;;;21.26;68.14;98762.78;6063633;28;96374;-59
2023/06/20 01:39:02;;;;;;;;;25.25;24.75;;;;;21.00;69.12;98753.25;6063399;28;96923;-59
2023/06/20 01:42:06;;;;;;;;;25.40;23.00;;;;;20.97;69.78;98753.81;6062179;28;96717;-59
2023/06/20 01:45:13;;;;;;;;;27.00;24.60;;;;;20.92;70.00;98751.94;6046817;28;98408;-59
2023/06/20 01:48:19;;;;;;;;;26.00;24.80;;;;;20.89;70.30;98755.28;6079237;28;96643;-59
2023/06/20 01:51:23;;;;;;;;;26.00;24.50;;;;;20.85;70.87;98765.22;6048108;28;96723;-60
2023/06/20 01:54:31;;;;;;;;;23.60;21.60;;;;;20.85;70.81;98761.66;6079706;28;96538;-59
2023/06/20 01:57:36;;;;;;;;;26.00;23.00;;;;;20.79;70.57;98754.59;6064991;28;96436;-59
2023/06/20 02:00:41;;;;;;;;;27.25;26.00;;;;;20.82;70.56;98762.25;6064176;28;96595;-59
2023/06/20 02:03:46;;;;;;;;;24.20;23.00;;;;;20.81;71.06;98763.34;6081188;28;96414;-59
2023/06/20 02:06:51;;;;;;;;;22.80;22.00;;;;;20.75;70.84;98754.34;6053437;28;96463;-59
2023/06/20 02:09:56;;;;;;;;;25.60;24.40;;;;;20.77;71.12;98760.34;6076392;28;96256;-59
2023/06/20 02:13:02;;;;;;;;;25.00;23.20;;;;;20.72;71.31;98763.16;6062881;28;96176;-59
2023/06/20 02:16:09;;;;;;;;;26.67;24.67;;;;;20.65;71.73;98762.69;6063889;28;96393;-59
2023/06/20 02:19:13;;;;;;;;;25.75;23.00;;;;;20.64;72.10;98764.59;6060241;28;98607;-60
2023/06/20 02:22:21;;;;;;;;;25.60;25.00;;;;;20.57;72.12;98757.84;6075289;28;96954;-59
2023/06/20 02:25:30;;;;;;;;;24.60;24.00;;;;;20.50;72.46;98757.38;6081831;28;96685;-60
2023/06/20 02:28:36;;;;;;;;;25.20;23.20;;;;;20.46;72.08;98762.63;6064893;28;96472;-60
2023/06/20 02:31:41;;;;;;;;;27.20;26.00;;;;;20.41;72.80;98759.09;6062883;28;96253;-59
2023/06/20 02:34:47;;;;;;;;;25.25;23.75;;;;;20.35;73.67;98760.25;6082298;28;96589;-59
2023/06/20 02:37:54;;;;;;;;;26.00;24.00;;;;;20.34;73.30;98751.22;6079223;28;96674;-59
2023/06/20 02:40:59;;;;;;;;;23.40;21.40;;;;;20.36;73.25;98753.69;6079439;28;96522;-59
2023/06/20 02:44:03;;;;;;;;;25.00;23.00;;;;;20.37;72.90;98752.56;6062430;28;96928;-59
2023/06/20 02:47:17;;;;;;;;;23.00;22.00;;;;;20.37;72.75;98756.13;6042947;28;96641;-59
2023/06/20 02:50:29;;;;;;;;;22.60;20.00;;;;;20.36;72.87;98750.94;6075315;28;96361;-60
2023/06/20 02:53:42;;;;;;;;;21.20;19.40;;;;;20.43;72.28;98751.44;6059580;28;96505;-60
2023/06/20 02:56:53;;;;;;;;;22.20;19.20;;;;;20.47;72.44;98761.50;6078302;28;96670;-59
2023/06/20 03:00:05;;;;;;;;;24.75;23.00;;;;;20.50;72.04;98760.91;6070242;28;96499;-59
2023/06/20 03:03:11;;;;;;;;;22.40;21.60;;;;;20.51;72.01;98761.75;6062483;28;96425;-59
2023/06/20 03:06:16;;;;;;;;;27.00;24.20;;;;;20.51;72.08;98756.25;6030068;28;96676;-59
2023/06/20 03:09:21;;;;;;;;;24.60;22.00;;;;;20.53;72.15;98748.56;6061244;28;97530;-59
2023/06/20 03:12:26;;;;;;;;;24.00;22.00;;;;;20.56;72.11;98753.47;6074309;28;96439;-59
2023/06/20 03:15:29;;;;;;;;;22.67;20.67;;;;;20.58;72.13;98757.53;6065720;28;96879;-60
2023/06/20 03:18:34;;;;;;;;;23.75;23.75;;;;;20.63;71.35;98756.66;6058470;28;96546;-60
2023/06/20 03:21:39;;;;;;;;;26.00;23.00;;;;;20.68;71.49;98757.44;6076200;28;96616;-60
2023/06/20 03:24:47;;;;;;;;;26.40;24.40;;;;;20.72;71.70;98763.97;6035893;28;96717;-60
2023/06/20 03:27:52;;;;;;;;;23.60;21.00;;;;;20.77;72.44;98755.69;6078049;28;96667;-59
2023/06/20 03:30:57;;;;;;;;;26.40;25.40;;;;;20.80;71.97;98759.78;6046077;28;96640;-59
2023/06/20 03:34:01;;;;;;;;;22.20;21.80;;;;;20.80;72.21;98768.00;6061484;28;96268;-60
2023/06/20 03:37:05;;;;;;;;;23.60;22.00;;;;;20.81;71.33;98768.81;6077056;28;96373;-59
2023/06/20 03:40:10;;;;;;;;;23.60;20.60;;;;;20.82;71.64;98771.25;6059288;28;96899;-59
2023/06/20 03:43:17;;;;;;;;;22.75;20.75;;;;;20.87;71.17;98779.41;6058109;28;96424;-59
2023/06/20 03:46:21;;;;;;;;;24.00;23.00;;;;;20.94;71.34;98784.56;6072973;28;96282;-59
2023/06/20 03:49:25;;;;;;;;;26.40;25.00;;;;;21.00;71.34;98786.97;6059855;28;96570;-59
2023/06/20 03:52:29;;;;;;;;;23.00;21.00;;;;;21.10;70.97;98786.03;6042689;28;96659;-59
2023/06/20 03:55:33;;;;;;;;;26.80;24.60;;;;;21.22;71.07;98788.34;6057463;28;96462;-59
2023/06/20 03:58:37;;;;;;;;;27.60;25.60;;;;;21.28;71.05;98773.47;6042588;28;99007;-60
2023/06/20 04:01:41;;;;;;;;;23.25;21.50;;;;;21.21;70.72;98762.88;6068589;28;97835;-59
2023/06/20 04:04:49;;;;;;;;;25.60;24.00;;;;;21.50;70.57;98787.47;6075333;28;96908;-61
2023/06/20 04:07:53;;;;;;;;;31.00;30.00;;;;;21.66;70.19;98791.59;6058814;28;97112;-59
2023/06/20 04:10:56;;;;;;;;;28.00;26.00;;;;;21.82;69.72;98783.97;6057611;28;96734;-59
2023/06/20 04:14:04;;;;;;;;;27.80;26.20;;;;;21.98;69.37;98785.41;6069700;28;96469;-59
2023/06/20 04:17:08;;;;;;;;;24.40;22.40;;;;;22.14;68.35;98777.75;6071934;28;96384;-59
2023/06/20 04:20:13;;;;;;;;;27.00;25.00;;;;;22.34;68.83;98780.94;6077070;28;96345;-59
2023/06/20 04:23:18;;;;;;;;;24.67;24.67;;;;;22.55;68.21;98777.84;6065345;28;96686;-60
2023/06/20 04:26:21;;;;;;;;;24.00;23.00;;;;;22.74;67.83;98775.88;6074559;28;96883;-59
2023/06/20 04:29:29;;;;;;;;;27.00;25.40;;;;;22.96;66.73;98783.44;6057183;28;96591;-59
2023/06/20 04:32:33;;;;;;;;;28.00;24.00;;;;;23.17;66.24;98781.88;6056907;28;96291;-60
2023/06/20 04:35:37;;;;;;;;;26.00;24.00;;;;;23.41;65.50;98792.69;6054778;28;96999;-61
2023/06/20 04:38:40;;;;;;;;;22.40;21.00;;;;;23.58;64.60;98792.88;6039588;28;96732;-59
2023/06/20 04:41:45;;;;;;;;;23.25;20.75;;;;;23.74;62.94;98786.75;6048949;28;96698;-60
2023/06/20 04:44:50;;;;;;;;;22.60;20.00;;;;;23.94;61.91;98790.97;6074270;28;96417;-60
2023/06/20 04:47:54;;;;;;;;;19.40;18.40;;;;;24.09;61.25;98795.28;6051182;28;98981;-59
2023/06/20 04:50:57;;;;;;;;;20.00;19.40;;;;;24.10;59.48;98797.72;6050955;28;97592;-60
2023/06/20 04:54:01;;;;;;;;;17.80;17.20;;;;;24.35;58.17;98804.56;6036176;28;96877;-60
2023/06/20 04:57:05;;;;;;;;;19.40;18.40;;;;;24.51;57.83;98792.03;6064282;28;96783;-60
2023/06/20 05:00:14;;;;;;;;;15.40;15.00;;;;;24.63;56.59;98799.72;6055621;28;96311;-60
2023/06/20 05:03:21;;;;;;;;;18.00;17.00;;;;;24.67;55.03;98800.72;6068285;28;96845;-59
2023/06/20 05:06:24;;;;;;;;;17.60;15.60;;;;;24.72;54.90;98805.28;6067854;28;96554;-59
2023/06/20 05:09:27;;;;;;;;;15.40;14.00;;;;;24.87;54.78;98802.16;6065428;28;96634;-60
2023/06/20 05:12:31;;;;;;;;;17.80;16.20;;;;;25.04;55.06;98804.97;6041332;28;98726;-60
2023/06/20 05:15:36;;;;;;;;;17.00;16.00;;;;;25.27;55.50;98806.53;6037700;28;96635;-59
2023/06/20 05:18:40;;;;;;;;;15.40;15.20;;;;;25.49;55.14;98802.03;6072717;28;96360;-59
2023/06/20 05:21:47;;;;;;;;;16.00;15.20;;;;;25.73;53.72;98807.97;6073003;28;96451;-60
2023/06/20 05:24:50;;;;;;;;;17.00;16.00;;;;;25.94;52.81;98810.91;6069668;28;96467;-59
2023/06/20 05:27:54;;;;;;;;;17.00;15.60;;;;;26.06;52.85;98794.50;6072012;28;97726;-59
2023/06/20 05:30:58;;;;;;;;;15.60;15.00;;;;;26.29;52.67;98807.03;6074977;28;96935;-59
2023/06/20 05:34:03;;;;;;;;;16.00;15.75;;;;;26.41;50.96;98800.84;6057859;28;96443;-59
2023/06/20 05:37:07;;;;;;;;;15.00;14.00;;;;;26.60;51.56;98796.56;6073955;28;96441;-60
2023/06/20 05:40:11;;;;;;;;;17.60;17.00;;;;;26.73;51.00;98798.31;6074875;28;96979;-59
2023/06/20 05:43:14;;;;;;;;;17.50;14.75;;;;;26.84;50.79;98804.31;6075391;28;96136;-59
2023/06/20 05:46:19;;;;;;;;;14.00;13.25;;;;;27.00;51.37;98801.84;6078386;28;96535;-60
2023/06/20 05:49:23;;;;;;;;;17.80;15.00;;;;;27.15;51.22;98801.28;6078796;28;96366;-60
2023/06/20 05:52:26;;;;;;;;;18.00;18.00;;;;;27.30;50.78;98805.47;6046341;28;96655;-60
2023/06/20 05:55:30;;;;;;;;;16.50;15.50;;;;;27.48;50.36;98821.63;6079704;28;96240;-60
2023/06/20 05:58:33;;;;;;;;;17.00;16.00;;;;;27.66;48.84;98819.59;6081064;28;96745;-61
2023/06/20 06:01:40;;;;;;;;;16.00;14.00;;;;;27.83;48.75;98819.50;6063157;28;98700;-60
2023/06/20 06:04:44;;;;;;;;;14.00;13.00;;;;;27.94;47.90;98809.63;6079962;28;96610;-60
2023/06/20 06:07:48;;;;;;;;;15.20;14.80;;;;;28.10;47.63;98815.34;6081399;28;96693;-60
2023/06/20 06:10:52;;;;;;;;;14.60;14.60;;;;;28.28;47.58;98807.75;6064792;28;96867;-60
2023/06/20 06:13:55;;;;;;;;;17.00;16.00;;;;;28.43;47.08;98819.03;6076137;28;97181;-60
2023/06/20 06:17:00;;;;;;;;;16.60;15.00;;;;;28.61;46.20;98816.88;6069688;28;96303;-60
2023/06/20 06:20:07;;;;;;;;;18.00;17.00;;;;;28.72;45.16;98808.97;6078248;28;98913;-60
2023/06/20 06:23:11;;;;;;;;;15.00;15.00;;;;;28.77;44.13;98814.31;6064318;28;97476;-60
2023/06/20 06:26:14;;;;;;;;;15.40;14.80;;;;;28.72;43.76;98822.84;6064625;28;96694;-60
2023/06/20 06:29:18;;;;;;;;;17.50;16.25;;;;;28.62;44.05;98810.19;6082169;28;96277;-60
2023/06/20 06:32:23;;;;;;;;;14.00;14.00;;;;;28.75;43.50;98827.69;6075282;28;96429;-59
2023/06/20 06:35:26;;;;;;;;;16.00;14.60;;;;;28.71;44.00;98830.34;6081107;28;96277;-59
2023/06/20 06:38:32;;;;;;;;;15.00;14.00;;;;;28.88;43.57;98834.13;6079223;28;96528;-60
2023/06/20 06:41:35;;;;;;;;;16.00;15.00;;;;;29.13;43.52;98821.88;6080083;28;96321;-60
2023/06/20 06:44:39;;;;;;;;;13.00;13.00;;;;;29.40;43.79;98826.78;6061491;28;98461;-60
2023/06/20 06:47:45;;;;;;;;;15.00;13.60;;;;;29.67;43.19;98820.50;6060889;28;96387;-60
2023/06/20 06:50:49;;;;;;;;;16.00;14.25;;;;;29.89;41.81;98819.25;6076668;28;96719;-60
2023/06/20 06:53:52;;;;;;;;;15.67;13.00;;;;;30.10;41.07;98822.66;6078174;28;96655;-60
2023/06/20 06:56:56;;;;;;;;;15.25;13.25;;;;;30.30;40.12;98834.75;6076090;28;96331;-60
2023/06/20 06:59:59;;;;;;;;;14.00;13.00;;;;;30.48;39.26;98835.31;6075622;28;97299;-60
2023/06/20 07:03:05;;;;;;;;;12.00;11.00;;;;;30.57;37.83;98826.81;6058101;28;96673;-60
2023/06/20 07:06:09;;;;;;;;;13.00;11.40;;;;;30.71;38.68;98828.00;6075241;28;96485;-60
2023/06/20 07:09:12;;;;;;;;;10.80;10.00;;;;;30.87;37.56;98826.06;6058075;28;97009;-60
2023/06/20 07:12:16;;;;;;;;;13.40;13.40;;;;;30.99;35.57;98833.50;6056535;28;96507;-60
2023/06/20 07:15:19;;;;;;;;;12.60;12.60;;;;;31.10;35.91;98831.03;6056202;28;96448;-61
2023/06/20 07:18:24;;;;;;;;;13.00;12.00;;;;;31.18;34.29;98832.88;6057665;28;96430;-61
2023/06/20 07:21:31;;;;;;;;;13.50;12.00;;;;;31.24;35.65;98826.63;6073453;28;96144;-60
2023/06/20 07:24:34;;;;;;;;;13.40;11.80;;;;;31.40;34.51;98835.81;6056585;28;96628;-62
2023/06/20 07:27:38;;;;;;;;;13.60;12.60;;;;;31.53;33.56;98841.25;6074558;28;97051;-60
2023/06/20 07:30:41;;;;;;;;;10.60;10.00;;;;;31.57;32.94;98847.78;6079419;28;96421;-60
2023/06/20 07:33:47;;;;;;;;;12.00;11.20;;;;;31.63;33.41;98841.56;6061718;28;96947;-60
2023/06/20 07:36:51;;;;;;;;;11.60;11.00;;;;;31.71;33.08;98842.56;6061168;28;96722;-60
2023/06/20 07:39:54;;;;;;;;;11.00;11.00;;;;;31.73;33.11;98840.19;6078863;28;96289;-60
2023/06/20 07:42:57;;;;;;;;;12.00;11.60;;;;;31.72;32.94;98838.56;6060882;28;96653;-60
2023/06/20 07:46:01;;;;;;;;;14.00;12.00;;;;;32.00;33.98;98846.78;6079219;28;97964;-61
2023/06/20 07:49:06;;;;;;;;;13.00;11.00;;;;;32.29;32.46;98842.66;6079011;28;96346;-60
2023/06/20 07:52:09;;;;;;;;;14.00;12.00;;;;;32.28;31.71;98844.66;6079876;28;96836;-60
2023/06/20 07:55:12;;;;;;;;;12.80;12.40;;;;;32.24;31.97;98836.22;6079795;28;96461;-61
2023/06/20 07:58:32;;;;;;;;;12.00;11.00;;;;;32.16;32.06;98831.63;6048165;28;98739;-61
2023/06/20 08:01:35;;;;;;;;;13.00;12.00;;;;;32.17;31.12;98841.63;6062338;28;96875;-60
2023/06/20 08:04:40;;;;;;;;;10.80;10.20;;;;;32.45;31.56;98837.84;6079173;28;96106;-61
2023/06/20 08:07:43;;;;;;;;;12.00;11.00;;;;;32.80;31.44;98849.72;6062371;28;96410;-60
2023/06/20 08:10:49;;;;;;;;;12.80;11.00;;;;;33.09;30.05;98839.88;6079356;28;96271;-60
2023/06/20 08:13:52;;;;;;;;;11.20;11.00;;;;;33.21;29.73;98834.13;6062832;28;96966;-60
2023/06/20 08:16:56;;;;;;;;;12.75;10.75;;;;;33.05;29.01;98839.81;6080915;28;96546;-60
2023/06/20 08:20:05;;;;;;;;;10.00;9.00;;;;;33.12;28.11;98836.34;6080282;28;96407;-62
2023/06/20 08:23:09;;;;;;;;;13.75;13.00;;;;;33.43;30.84;98840.88;6079740;28;97339;-61
2023/06/20 08:26:12;;;;;;;;;9.00;9.00;;;;;33.84;30.11;98833.56;6064875;28;96795;-60
2023/06/20 08:29:16;;;;;;;;;13.00;12.00;;;;;34.15;29.92;98841.63;6064064;28;96327;-60
2023/06/20 08:32:19;;;;;;;;;10.80;9.00;;;;;34.37;29.06;98842.72;6082393;28;96524;-61
2023/06/20 08:35:24;;;;;;;;;11.50;10.75;;;;;34.36;27.68;98838.28;6082209;28;96338;-60
2023/06/20 08:38:28;;;;;;;;;12.00;12.00;;;;;34.55;26.68;98840.94;6065617;28;97028;-60
2023/06/20 08:41:31;;;;;;;;;11.40;10.00;;;;;34.70;26.41;98848.34;6082085;28;96888;-61
2023/06/20 08:44:37;;;;;;;;;9.00;9.00;;;;;34.63;24.76;98858.63;6048596;28;98505;-63
2023/06/20 08:47:59;;;;;;;;;11.00;11.00;;;;;34.40;25.38;98860.75;6083169;28;96287;-60
2023/06/20 08:51:05;;;;;;;;;10.75;10.25;;;;;34.50;25.70;98854.47;6081365;28;96716;-62
2023/06/20 08:54:13;;;;;;;;;10.00;10.00;;;;;34.72;24.61;98847.97;6060983;28;96719;-60
2023/06/20 08:57:18;;;;;;;;;8.25;8.00;;;;;35.03;25.24;98849.50;6064013;28;96341;-61
2023/06/20 09:00:22;;;;;;;;;10.60;10.00;;;;;34.89;23.71;98849.34;6066996;28;96331;-60
2023/06/20 09:03:27;;;;;;;;;10.40;9.40;;;;;35.02;25.06;98840.28;6064910;28;96428;-61
2023/06/20 09:06:37;;;;;;;;;9.20;9.00;;;;;35.35;24.64;98838.59;6064937;28;96837;-60
2023/06/20 09:09:40;;;;;;;;;10.60;10.00;;;;;35.67;25.14;98841.69;6063917;28;96177;-61
2023/06/20 09:12:48;;;;;;;;;9.60;9.00;;;;;35.70;23.31;98836.09;6045774;28;97240;-62
2023/06/20 09:16:05;;;;;;;;;9.00;8.00;;;;;35.52;23.60;98835.16;6062550;28;96444;-61
2023/06/20 09:19:08;;;;;;;;;10.00;9.00;;;;;35.60;23.91;98832.00;6062541;28;96317;-61
2023/06/20 09:22:13;;;;;;;;;10.00;9.40;;;;;35.65;23.56;98833.63;6082456;28;96352;-61
2023/06/20 09:25:21;;;;;;;;;12.00;12.00;;;;;35.58;23.14;98825.97;6080319;28;96378;-61
2023/06/20 09:28:24;;;;;;;;;11.00;9.00;;;;;35.62;23.08;98818.41;6048787;28;96867;-61
2023/06/20 09:31:27;;;;;;;;;9.75;9.00;;;;;35.68;23.53;98813.25;6048136;28;96778;-61
2023/06/20 09:34:35;;;;;;;;;11.80;11.80;;;;;35.85;22.93;98815.38;6069632;28;96641;-61
2023/06/20 09:37:43;;;;;;;;;11.00;10.00;;;;;36.07;24.28;98812.69;6081493;28;96459;-61
2023/06/20 09:40:47;;;;;;;;;12.00;11.00;;;;;36.44;23.13;98824.50;6063548;28;98398;-61
2023/06/20 09:43:50;;;;;;;;;10.00;10.00;;;;;36.68;23.88;98828.63;6063434;28;96459;-60
2023/06/20 09:46:54;;;;;;;;;10.00;10.00;;;;;36.92;22.86;98825.06;6079898;28;96325;-60
2023/06/20 09:49:58;;;;;;;;;12.00;11.00;;;;;37.15;22.33;98819.09;6080025;28;96352;-60
2023/06/20 09:53:09;;;;;;;;;11.00;10.00;;;;;37.31;22.70;98816.72;6079967;28;96446;-61
2023/06/20 09:56:15;;;;;;;;;12.00;11.00;;;;;37.37;23.00;98823.53;6080181;28;96555;-61
2023/06/20 09:59:18;;;;;;;;;11.00;11.00;;;;;37.48;22.87;98821.53;6062473;28;96901;-61
2023/06/20 10:02:24;;;;;;;;;11.75;10.00;;;;;37.62;22.50;98818.75;6061633;28;95978;-61
2023/06/20 10:05:28;;;;;;;;;11.00;10.60;;;;;37.72;21.78;98822.75;6061338;28;98560;-61
2023/06/20 10:08:34;;;;;;;;;11.20;10.20;;;;;37.82;21.21;98821.13;6080235;28;95949;-60
2023/06/20 10:11:38;;;;;;;;;11.00;9.20;;;;;37.85;21.34;98823.91;6079358;28;96633;-61
2023/06/20 10:14:42;;;;;;;;;11.00;11.00;;;;;37.54;20.89;98819.94;6045739;28;97112;-60
2023/06/20 10:17:47;;;;;;;;;12.50;12.00;;;;;37.49;21.60;98803.44;6078551;28;96409;-60
2023/06/20 10:20:50;;;;;;;;;14.00;12.00;;;;;37.55;21.67;98803.88;6060450;28;96370;-62
2023/06/20 10:23:55;;;;;;;;;11.00;10.25;;;;;37.34;21.21;98793.41;6074270;28;96247;-60
2023/06/20 10:27:00;;;;;;;;;12.00;11.80;;;;;37.08;20.98;98800.25;6079015;28;96521;-61
2023/06/20 10:30:06;;;;;;;;;14.20;13.20;;;;;37.11;21.97;98798.63;6077792;28;96937;-61
2023/06/20 10:33:11;;;;;;;;;10.60;10.60;;;;;37.12;22.21;98798.22;6060350;28;96516;-60
2023/06/20 10:36:18;;;;;;;;;11.00;10.00;;;;;37.15;21.27;98796.59;6043610;28;98509;-58
2023/06/20 10:39:22;;;;;;;;;12.00;11.00;;;;;37.02;21.22;98786.94;6076889;28;96249;-61
2023/06/20 10:42:42;;;;;;;;;13.00;13.00;;;;;36.96;22.23;98783.72;6077873;28;96281;-60
2023/06/20 10:45:53;;;;;;;;;14.80;13.00;;;;;36.77;22.50;98784.09;6059554;28;99161;-60
2023/06/20 10:48:56;;;;;;;;;11.60;11.00;;;;;36.72;23.44;98795.72;6078971;28;96352;-60
2023/06/20 10:52:02;;;;;;;;;12.60;11.40;;;;;36.85;23.24;98788.53;6059965;28;97186;-64
2023/06/20 10:55:10;;;;;;;;;12.40;12.00;;;;;37.10;23.07;98780.16;6077524;28;96351;-61
2023/06/20 10:58:13;;;;;;;;;10.60;10.60;;;;;36.84;23.04;98781.31;6078245;28;96806;-61
2023/06/20 11:01:34;;;;;;;;;13.00;12.00;;;;;36.11;23.95;98777.03;6074777;28;96341;-61
2023/06/20 11:04:37;;;;;;;;;14.80;14.80;;;;;35.82;24.64;98776.09;6065685;28;98468;-61
2023/06/20 11:07:58;;;;;;;;;15.00;13.60;;;;;35.72;24.37;98766.41;6056876;28;97310;-60
2023/06/20 11:11:05;;;;;;;;;14.00;12.40;;;;;35.86;23.72;98771.28;6076382;28;96407;-61
2023/06/20 11:14:12;;;;;;;;;11.00;11.00;;;;;35.94;23.96;98767.31;6077704;28;96873;-61
2023/06/20 11:17:15;;;;;;;;;12.67;12.67;;;;;35.84;23.50;98763.25;6073272;28;98545;-61
2023/06/20 11:20:20;;;;;;;;;14.00;13.20;;;;;35.68;23.96;98761.97;6079562;28;96807;-61
2023/06/20 11:23:34;;;;;;;;;12.20;11.20;;;;;35.77;24.86;98763.25;6078107;28;96452;-61
2023/06/20 11:26:39;;;;;;;;;14.00;13.40;;;;;35.54;24.27;98748.63;6067807;28;96311;-61
2023/06/20 11:29:45;;;;;;;;;13.40;12.80;;;;;35.16;24.52;98763.94;6081382;28;96300;-60
2023/06/20 11:33:09;;;;;;;;;12.60;12.00;;;;;35.42;25.29;98754.56;6063141;28;96997;-60
2023/06/20 11:36:16;;;;;;;;;12.25;12.25;;;;;35.77;25.19;98749.22;6077921;28;97043;-61
2023/06/20 11:39:21;;;;;;;;;14.00;13.00;;;;;36.33;24.48;98753.47;6076839;28;97024;-61
2023/06/20 11:42:33;;;;;;;;;13.50;13.00;;;;;36.85;23.50;98749.19;6043531;28;96703;-60
2023/06/20 11:45:36;;;;;;;;;14.80;11.80;;;;;37.23;23.25;98748.44;6074547;28;96917;-60
2023/06/20 11:48:48;;;;;;;;;13.00;12.00;;;;;37.54;22.60;98749.63;6059888;28;97310;-60
2023/06/20 11:51:53;;;;;;;;;15.00;13.00;;;;;37.43;22.69;98746.00;6060016;28;96625;-60
2023/06/20 11:54:58;;;;;;;;;12.00;11.60;;;;;37.17;22.55;98752.84;6062252;28;96986;-61
2023/06/20 11:58:04;;;;;;;;;11.80;10.80;;;;;36.94;22.86;98755.25;6091424;28;96500;-61
2023/06/20 12:01:09;;;;;;;;;13.00;11.50;;;;;36.86;23.15;98740.38;6061111;28;96368;-61
2023/06/20 12:04:14;;;;;;;;;15.00;13.60;;;;;36.93;22.57;98750.81;6077733;28;96277;-61
2023/06/20 12:07:18;;;;;;;;;15.00;13.00;;;;;37.06;22.71;98749.19;6070324;28;98419;-58
2023/06/20 12:10:24;;;;;;;;;10.20;10.20;;;;;37.28;21.89;98750.03;6070829;28;96192;-58
2023/06/20 12:13:30;;;;;;;;;12.60;12.00;;;;;37.24;21.11;98741.59;6064862;28;97001;-58
2023/06/20 12:16:34;;;;;;;;;13.60;12.00;;;;;37.53;21.07;98739.59;6070564;28;96837;-59
2023/06/20 12:19:50;;;;;;;;;12.75;12.00;;;;;37.11;21.79;98737.59;6060604;28;96373;-58
2023/06/20 12:22:53;;;;;;;;;12.67;12.00;;;;;35.95;23.02;98738.06;6057707;28;96445;-58
2023/06/20 12:25:57;;;;;;;;;12.40;12.00;;;;;35.71;23.50;98733.94;6062128;28;96397;-60
2023/06/20 12:29:02;;;;;;;;;13.75;13.75;;;;;35.66;23.53;98731.50;6077390;28;96709;-63
2023/06/20 12:32:05;;;;;;;;;14.40;13.00;;;;;35.21;23.25;98727.19;6063836;28;96281;-58
2023/06/20 12:35:09;;;;;;;;;10.80;9.80;;;;;35.76;24.00;98725.16;6059107;28;99389;-59
2023/06/20 12:38:12;;;;;;;;;12.00;11.60;;;;;35.85;24.15;98724.78;6074555;28;96308;-59
2023/06/20 12:41:17;;;;;;;;;12.00;11.00;;;;;35.91;24.33;98721.22;6057852;28;98540;-59
2023/06/20 12:44:22;;;;;;;;;12.00;12.00;;;;;36.05;24.61;98720.47;6079750;28;96987;-58
2023/06/20 12:47:25;;;;;;;;;12.00;11.00;;;;;36.06;23.31;98722.09;6065436;28;98746;-59
2023/06/20 12:50:28;;;;;;;;;13.00;12.00;;;;;36.19;24.21;98719.75;6075284;28;96437;-58
2023/06/20 12:53:33;;;;;;;;;14.67;14.00;;;;;36.01;23.42;98717.66;6054930;28;98400;-58
2023/06/20 12:56:36;;;;;;;;;14.20;13.20;;;;;36.21;24.44;98718.16;6077458;28;96402;-59
2023/06/20 12:59:41;;;;;;;;;13.00;12.00;;;;;36.29;22.52;98725.41;6071569;28;96503;-58
2023/06/20 13:02:44;;;;;;;;;13.00;12.00;;;;;36.37;23.12;98729.00;6073168;28;96921;-59
2023/06/20 13:05:48;;;;;;;;;12.40;12.00;;;;;36.20;23.06;98727.78;6079886;28;96446;-58
2023/06/20 13:08:51;;;;;;;;;12.50;11.50;;;;;36.36;23.36;98725.41;6059600;28;98675;-58
2023/06/20 13:11:54;;;;;;;;;13.00;12.00;;;;;36.69;23.41;98715.88;6076909;28;96556;-58
2023/06/20 13:15:00;;;;;;;;;10.60;10.00;;;;;36.55;22.47;98707.41;6056258;28;97439;-59
2023/06/20 13:18:09;;;;;;;;;13.00;12.00;;;;;36.35;22.56;98709.78;6073848;28;96566;-59
2023/06/20 13:21:13;;;;;;;;;12.40;12.00;;;;;36.43;23.23;98711.38;6066784;28;97112;-59
2023/06/20 13:24:16;;;;;;;;;12.00;11.00;;;;;36.81;23.18;98709.84;6075635;28;96465;-58
2023/06/20 13:27:21;;;;;;;;;14.00;12.25;;;;;37.05;22.84;98704.63;6058276;28;96436;-58
2023/06/20 13:30:25;;;;;;;;;15.00;12.00;;;;;36.86;22.42;98703.84;6068125;28;97076;-59
2023/06/20 13:33:29;;;;;;;;;15.00;13.75;;;;;36.93;23.25;98700.22;6069411;28;96442;-58
2023/06/20 13:36:33;;;;;;;;;12.00;11.40;;;;;36.84;23.05;98706.25;6058842;28;98612;-59
2023/06/20 13:39:36;;;;;;;;;12.80;11.80;;;;;36.88;23.14;98703.44;6067536;28;96304;-59
2023/06/20 13:42:42;;;;;;;;;14.00;14.00;;;;;36.96;23.07;98690.97;6073086;28;96322;-59
2023/06/20 13:45:47;;;;;;;;;11.00;11.00;;;;;36.55;22.40;98701.78;6075878;28;96326;-58
2023/06/20 13:48:51;;;;;;;;;13.00;12.00;;;;;36.01;23.31;98705.63;6068453;28;96379;-58
2023/06/20 13:51:54;;;;;;;;;11.00;10.00;;;;;35.94;24.16;98697.16;6067971;28;96444;-58
2023/06/20 13:54:58;;;;;;;;;14.80;12.80;;;;;35.92;24.82;98700.38;6039997;28;98821;-58
2023/06/20 13:58:01;;;;;;;;;14.00;14.00;;;;;35.66;24.64;98683.84;6039197;28;98414;-59
2023/06/20 14:01:06;;;;;;;;;13.67;12.67;;;;;35.54;24.72;98686.94;6074762;28;96378;-61
2023/06/20 14:04:09;;;;;;;;;12.40;12.40;;;;;35.51;24.88;98687.72;6071017;28;96458;-61
2023/06/20 14:07:12;;;;;;;;;13.00;12.00;;;;;35.47;25.11;98695.31;6065060;28;96308;-58
2023/06/20 14:10:15;;;;;;;;;12.50;12.00;;;;;35.42;25.22;98693.69;6073307;28;96366;-59
2023/06/20 14:13:19;;;;;;;;;11.00;11.00;;;;;35.64;25.33;98691.78;6047601;28;96603;-58